sensor_id;sensor_type;location;lat;lon;timestamp;P1;durP1;ratioP1;P2;durP2;ratioP2
74908;SDS011;63468;52.058;4.824;2023-07-30T00:01:07;11.85;;;6.18;;
74908;SDS011;63468;52.058;4.824;2023-07-30T00:03:32;11.48;;;6.88;;
74908;SDS011;63468;52.058;4.824;2023-07-30T00:05:57;11.07;;;6.70;;
74908;SDS011;63468;52.058;4.824;2023-07-30T00:08:23;17.23;;;7.30;;
74908;SDS011;63468;52.058;4.824;2023-07-30T00:10:48;11.82;;;6.35;;
74908;SDS011;63468;52.058;4.824;2023-07-30T00:13:16;13.80;;;6.70;;
74908;SDS011;63468;52.058;4.824;2023-07-30T00:15:42;14.23;;;6.05;;
74908;SDS011;63468;52.058;4.824;2023-07-30T00:18:07;11.10;;;7.22;;
74908;SDS011;63468;52.058;4.824;2023-07-30T00:20:35;13.27;;;6.32;;
74908;SDS011;63468;52.058;4.824;2023-07-30T00:23:01;14.90;;;6.10;;
74908;SDS011;63468;52.058;4.824;2023-07-30T00:25:26;12.98;;;6.28;;
74908;SDS011;63468;52.058;4.824;2023-07-30T00:27:51;14.65;;;6.57;;
74908;SDS011;63468;52.058;4.824;2023-07-30T00:30:16;18.58;;;6.68;;
74908;SDS011;63468;52.058;4.824;2023-07-30T00:32:42;15.75;;;6.97;;
74908;SDS011;63468;52.058;4.824;2023-07-30T00:35:08;14.18;;;6.82;;
74908;SDS011;63468;52.058;4.824;2023-07-30T00:37:34;18.30;;;6.53;;
74908;SDS011;63468;52.058;4.824;2023-07-30T00:40:00;12.65;;;5.90;;
74908;SDS011;63468;52.058;4.824;2023-07-30T00:42:25;12.48;;;6.80;;
74908;SDS011;63468;52.058;4.824;2023-07-30T00:44:50;16.33;;;6.00;;
74908;SDS011;63468;52.058;4.824;2023-07-30T00:47:15;13.40;;;6.30;;
74908;SDS011;63468;52.058;4.824;2023-07-30T00:49:41;14.35;;;6.20;;
74908;SDS011;63468;52.058;4.824;2023-07-30T00:52:06;15.98;;;6.78;;
74908;SDS011;63468;52.058;4.824;2023-07-30T00:54:32;15.88;;;6.38;;
74908;SDS011;63468;52.058;4.824;2023-07-30T00:56:58;10.32;;;7.00;;
74908;SDS011;63468;52.058;4.824;2023-07-30T00:59:23;14.80;;;6.32;;
74908;SDS011;63468;52.058;4.824;2023-07-30T01:01:48;15.40;;;6.07;;
74908;SDS011;63468;52.058;4.824;2023-07-30T01:04:16;14.70;;;6.60;;
74908;SDS011;63468;52.058;4.824;2023-07-30T01:06:41;17.27;;;6.30;;
74908;SDS011;63468;52.058;4.824;2023-07-30T01:09:07;13.50;;;5.85;;
74908;SDS011;63468;52.058;4.824;2023-07-30T01:11:32;11.73;;;6.03;;
74908;SDS011;63468;52.058;4.824;2023-07-30T01:13:58;15.00;;;6.50;;
74908;SDS011;63468;52.058;4.824;2023-07-30T01:16:24;16.55;;;7.13;;
74908;SDS011;63468;52.058;4.824;2023-07-30T01:18:49;14.93;;;7.03;;
74908;SDS011;63468;52.058;4.824;2023-07-30T01:21:14;22.42;;;6.65;;
74908;SDS011;63468;52.058;4.824;2023-07-30T01:23:40;13.10;;;6.30;;
74908;SDS011;63468;52.058;4.824;2023-07-30T01:26:09;14.02;;;6.60;;
74908;SDS011;63468;52.058;4.824;2023-07-30T01:28:37;12.45;;;6.10;;
74908;SDS011;63468;52.058;4.824;2023-07-30T01:31:09;18.20;;;6.88;;
74908;SDS011;63468;52.058;4.824;2023-07-30T01:33:39;19.25;;;6.60;;
74908;SDS011;63468;52.058;4.824;2023-07-30T01:36:05;13.10;;;6.43;;
74908;SDS011;63468;52.058;4.824;2023-07-30T01:38:31;19.15;;;6.72;;
74908;SDS011;63468;52.058;4.824;2023-07-30T01:40:57;16.95;;;6.97;;
74908;SDS011;63468;52.058;4.824;2023-07-30T01:43:22;16.25;;;6.00;;
74908;SDS011;63468;52.058;4.824;2023-07-30T01:45:48;18.55;;;6.63;;
74908;SDS011;63468;52.058;4.824;2023-07-30T01:48:13;13.73;;;7.28;;
74908;SDS011;63468;52.058;4.824;2023-07-30T01:50:39;15.63;;;5.65;;
74908;SDS011;63468;52.058;4.824;2023-07-30T01:53:04;14.70;;;6.82;;
74908;SDS011;63468;52.058;4.824;2023-07-30T01:55:29;17.75;;;7.60;;
74908;SDS011;63468;52.058;4.824;2023-07-30T01:57:55;18.33;;;6.93;;
74908;SDS011;63468;52.058;4.824;2023-07-30T02:00:20;14.85;;;6.10;;
74908;SDS011;63468;52.058;4.824;2023-07-30T02:02:45;13.63;;;6.20;;
74908;SDS011;63468;52.058;4.824;2023-07-30T02:05:11;13.55;;;6.38;;
74908;SDS011;63468;52.058;4.824;2023-07-30T02:07:36;14.05;;;6.20;;
74908;SDS011;63468;52.058;4.824;2023-07-30T02:10:01;21.65;;;6.95;;
74908;SDS011;63468;52.058;4.824;2023-07-30T02:12:27;14.55;;;6.30;;
74908;SDS011;63468;52.058;4.824;2023-07-30T02:14:52;17.13;;;6.63;;
74908;SDS011;63468;52.058;4.824;2023-07-30T02:17:17;17.80;;;8.60;;
74908;SDS011;63468;52.058;4.824;2023-07-30T02:19:43;18.05;;;6.88;;
74908;SDS011;63468;52.058;4.824;2023-07-30T02:22:08;17.95;;;8.05;;
74908;SDS011;63468;52.058;4.824;2023-07-30T02:24:33;20.35;;;7.05;;
74908;SDS011;63468;52.058;4.824;2023-07-30T02:26:58;20.75;;;7.95;;
74908;SDS011;63468;52.058;4.824;2023-07-30T02:29:24;20.63;;;7.80;;
74908;SDS011;63468;52.058;4.824;2023-07-30T02:31:50;16.88;;;7.22;;
74908;SDS011;63468;52.058;4.824;2023-07-30T02:34:15;17.15;;;7.65;;
74908;SDS011;63468;52.058;4.824;2023-07-30T02:36:40;18.45;;;7.70;;
74908;SDS011;63468;52.058;4.824;2023-07-30T02:39:06;18.10;;;6.93;;
74908;SDS011;63468;52.058;4.824;2023-07-30T02:41:31;19.67;;;6.80;;
74908;SDS011;63468;52.058;4.824;2023-07-30T02:43:56;23.35;;;7.82;;
74908;SDS011;63468;52.058;4.824;2023-07-30T02:46:22;22.77;;;7.90;;
74908;SDS011;63468;52.058;4.824;2023-07-30T02:48:47;18.02;;;6.82;;
74908;SDS011;63468;52.058;4.824;2023-07-30T02:51:12;13.93;;;7.22;;
74908;SDS011;63468;52.058;4.824;2023-07-30T02:53:37;18.77;;;7.75;;
74908;SDS011;63468;52.058;4.824;2023-07-30T02:56:03;22.40;;;7.53;;
74908;SDS011;63468;52.058;4.824;2023-07-30T02:58:28;19.67;;;8.05;;
74908;SDS011;63468;52.058;4.824;2023-07-30T03:00:53;19.25;;;7.43;;
74908;SDS011;63468;52.058;4.824;2023-07-30T03:03:19;19.80;;;8.52;;
74908;SDS011;63468;52.058;4.824;2023-07-30T03:05:44;18.63;;;7.50;;
74908;SDS011;63468;52.058;4.824;2023-07-30T03:08:09;18.02;;;7.40;;
74908;SDS011;63468;52.058;4.824;2023-07-30T03:10:38;25.60;;;9.32;;
74908;SDS011;63468;52.058;4.824;2023-07-30T03:13:03;18.42;;;8.52;;
74908;SDS011;63468;52.058;4.824;2023-07-30T03:15:29;20.67;;;9.23;;
74908;SDS011;63468;52.058;4.824;2023-07-30T03:17:54;20.10;;;8.63;;
74908;SDS011;63468;52.058;4.824;2023-07-30T03:20:19;21.65;;;8.57;;
74908;SDS011;63468;52.058;4.824;2023-07-30T03:22:45;17.60;;;7.50;;
74908;SDS011;63468;52.058;4.824;2023-07-30T03:25:10;22.50;;;9.25;;
74908;SDS011;63468;52.058;4.824;2023-07-30T03:27:35;22.13;;;9.45;;
74908;SDS011;63468;52.058;4.824;2023-07-30T03:30:01;15.88;;;8.75;;
74908;SDS011;63468;52.058;4.824;2023-07-30T03:32:26;24.17;;;9.55;;
74908;SDS011;63468;52.058;4.824;2023-07-30T03:34:51;19.58;;;10.55;;
74908;SDS011;63468;52.058;4.824;2023-07-30T03:37:16;23.80;;;9.98;;
74908;SDS011;63468;52.058;4.824;2023-07-30T03:39:42;22.90;;;9.85;;
74908;SDS011;63468;52.058;4.824;2023-07-30T03:42:07;25.95;;;10.73;;
74908;SDS011;63468;52.058;4.824;2023-07-30T03:44:32;23.88;;;11.50;;
74908;SDS011;63468;52.058;4.824;2023-07-30T03:46:58;25.38;;;10.85;;
74908;SDS011;63468;52.058;4.824;2023-07-30T03:49:23;24.23;;;9.68;;
74908;SDS011;63468;52.058;4.824;2023-07-30T03:51:48;24.02;;;10.10;;
74908;SDS011;63468;52.058;4.824;2023-07-30T03:54:15;32.35;;;11.20;;
74908;SDS011;63468;52.058;4.824;2023-07-30T03:56:41;20.60;;;10.60;;
74908;SDS011;63468;52.058;4.824;2023-07-30T03:59:06;22.02;;;11.30;;
74908;SDS011;63468;52.058;4.824;2023-07-30T04:01:31;21.30;;;12.00;;
74908;SDS011;63468;52.058;4.824;2023-07-30T04:03:57;34.50;;;13.57;;
74908;SDS011;63468;52.058;4.824;2023-07-30T04:06:22;20.77;;;11.75;;
74908;SDS011;63468;52.058;4.824;2023-07-30T04:08:47;28.98;;;12.18;;
74908;SDS011;63468;52.058;4.824;2023-07-30T04:11:13;23.02;;;10.65;;
74908;SDS011;63468;52.058;4.824;2023-07-30T04:13:38;29.77;;;11.50;;
74908;SDS011;63468;52.058;4.824;2023-07-30T04:16:03;16.75;;;9.90;;
74908;SDS011;63468;52.058;4.824;2023-07-30T04:18:29;24.65;;;10.75;;
74908;SDS011;63468;52.058;4.824;2023-07-30T04:20:54;19.13;;;10.25;;
74908;SDS011;63468;52.058;4.824;2023-07-30T04:23:21;31.48;;;10.90;;
74908;SDS011;63468;52.058;4.824;2023-07-30T04:25:48;20.55;;;9.85;;
74908;SDS011;63468;52.058;4.824;2023-07-30T04:28:14;25.05;;;11.35;;
74908;SDS011;63468;52.058;4.824;2023-07-30T04:30:40;28.25;;;11.20;;
74908;SDS011;63468;52.058;4.824;2023-07-30T04:33:06;22.52;;;12.00;;
74908;SDS011;63468;52.058;4.824;2023-07-30T04:35:31;21.23;;;10.77;;
74908;SDS011;63468;52.058;4.824;2023-07-30T04:37:57;23.15;;;10.30;;
74908;SDS011;63468;52.058;4.824;2023-07-30T04:40:22;21.20;;;10.10;;
74908;SDS011;63468;52.058;4.824;2023-07-30T04:42:48;23.65;;;10.90;;
74908;SDS011;63468;52.058;4.824;2023-07-30T04:45:13;21.80;;;11.48;;
74908;SDS011;63468;52.058;4.824;2023-07-30T04:47:39;23.65;;;11.02;;
74908;SDS011;63468;52.058;4.824;2023-07-30T04:50:04;23.13;;;11.20;;
74908;SDS011;63468;52.058;4.824;2023-07-30T04:52:29;30.23;;;10.07;;
74908;SDS011;63468;52.058;4.824;2023-07-30T04:54:55;25.17;;;10.82;;
74908;SDS011;63468;52.058;4.824;2023-07-30T04:57:20;23.38;;;10.90;;
74908;SDS011;63468;52.058;4.824;2023-07-30T04:59:45;23.73;;;10.25;;
74908;SDS011;63468;52.058;4.824;2023-07-30T05:02:11;25.88;;;9.90;;
74908;SDS011;63468;52.058;4.824;2023-07-30T05:04:36;21.80;;;10.48;;
74908;SDS011;63468;52.058;4.824;2023-07-30T05:07:03;25.75;;;10.88;;
74908;SDS011;63468;52.058;4.824;2023-07-30T05:09:28;17.63;;;9.85;;
74908;SDS011;63468;52.058;4.824;2023-07-30T05:11:53;24.85;;;10.32;;
74908;SDS011;63468;52.058;4.824;2023-07-30T05:14:19;21.90;;;11.85;;
74908;SDS011;63468;52.058;4.824;2023-07-30T05:16:44;16.58;;;10.15;;
74908;SDS011;63468;52.058;4.824;2023-07-30T05:19:09;18.75;;;9.75;;
74908;SDS011;63468;52.058;4.824;2023-07-30T05:21:35;24.00;;;9.57;;
74908;SDS011;63468;52.058;4.824;2023-07-30T05:24:00;16.42;;;9.38;;
74908;SDS011;63468;52.058;4.824;2023-07-30T05:26:25;25.20;;;10.43;;
74908;SDS011;63468;52.058;4.824;2023-07-30T05:28:51;17.58;;;10.35;;
74908;SDS011;63468;52.058;4.824;2023-07-30T05:31:16;29.00;;;10.70;;
74908;SDS011;63468;52.058;4.824;2023-07-30T05:33:41;24.95;;;9.73;;
74908;SDS011;63468;52.058;4.824;2023-07-30T05:36:07;23.95;;;11.07;;
74908;SDS011;63468;52.058;4.824;2023-07-30T05:38:33;20.52;;;11.07;;
74908;SDS011;63468;52.058;4.824;2023-07-30T05:40:58;25.00;;;10.93;;
74908;SDS011;63468;52.058;4.824;2023-07-30T05:43:23;15.05;;;8.70;;
74908;SDS011;63468;52.058;4.824;2023-07-30T05:45:48;22.30;;;9.70;;
74908;SDS011;63468;52.058;4.824;2023-07-30T05:48:14;27.83;;;11.27;;
74908;SDS011;63468;52.058;4.824;2023-07-30T05:50:39;20.20;;;10.63;;
74908;SDS011;63468;52.058;4.824;2023-07-30T05:53:04;22.65;;;10.00;;
74908;SDS011;63468;52.058;4.824;2023-07-30T05:55:30;22.00;;;11.40;;
74908;SDS011;63468;52.058;4.824;2023-07-30T05:57:55;17.23;;;9.82;;
74908;SDS011;63468;52.058;4.824;2023-07-30T06:00:21;23.25;;;11.23;;
74908;SDS011;63468;52.058;4.824;2023-07-30T06:02:46;24.50;;;9.68;;
74908;SDS011;63468;52.058;4.824;2023-07-30T06:05:11;23.92;;;10.32;;
74908;SDS011;63468;52.058;4.824;2023-07-30T06:07:36;25.30;;;10.43;;
74908;SDS011;63468;52.058;4.824;2023-07-30T06:10:02;18.95;;;8.88;;
74908;SDS011;63468;52.058;4.824;2023-07-30T06:12:27;29.95;;;17.20;;
74908;SDS011;63468;52.058;4.824;2023-07-30T06:14:53;30.70;;;9.60;;
74908;SDS011;63468;52.058;4.824;2023-07-30T06:17:18;16.65;;;8.05;;
74908;SDS011;63468;52.058;4.824;2023-07-30T06:19:43;19.88;;;8.73;;
74908;SDS011;63468;52.058;4.824;2023-07-30T06:22:09;19.77;;;9.25;;
74908;SDS011;63468;52.058;4.824;2023-07-30T06:24:34;19.42;;;9.00;;
74908;SDS011;63468;52.058;4.824;2023-07-30T06:26:59;23.75;;;8.77;;
74908;SDS011;63468;52.058;4.824;2023-07-30T06:29:25;23.80;;;8.95;;
74908;SDS011;63468;52.058;4.824;2023-07-30T06:31:50;17.65;;;7.53;;
74908;SDS011;63468;52.058;4.824;2023-07-30T06:34:16;18.10;;;7.28;;
74908;SDS011;63468;52.058;4.824;2023-07-30T06:36:41;22.67;;;8.55;;
74908;SDS011;63468;52.058;4.824;2023-07-30T06:39:06;19.88;;;7.82;;
74908;SDS011;63468;52.058;4.824;2023-07-30T06:41:31;21.20;;;8.52;;
74908;SDS011;63468;52.058;4.824;2023-07-30T06:43:57;18.33;;;7.43;;
74908;SDS011;63468;52.058;4.824;2023-07-30T06:46:22;15.90;;;7.60;;
74908;SDS011;63468;52.058;4.824;2023-07-30T06:48:47;22.50;;;8.13;;
74908;SDS011;63468;52.058;4.824;2023-07-30T06:51:13;15.68;;;7.68;;
74908;SDS011;63468;52.058;4.824;2023-07-30T06:53:38;21.35;;;7.63;;
74908;SDS011;63468;52.058;4.824;2023-07-30T06:56:04;13.73;;;6.63;;
74908;SDS011;63468;52.058;4.824;2023-07-30T06:58:30;13.80;;;6.65;;
74908;SDS011;63468;52.058;4.824;2023-07-30T07:00:55;15.70;;;6.63;;
74908;SDS011;63468;52.058;4.824;2023-07-30T07:03:20;19.02;;;7.50;;
74908;SDS011;63468;52.058;4.824;2023-07-30T07:05:52;23.52;;;7.97;;
74908;SDS011;63468;52.058;4.824;2023-07-30T07:08:18;17.42;;;6.25;;
74908;SDS011;63468;52.058;4.824;2023-07-30T07:10:44;18.15;;;7.97;;
74908;SDS011;63468;52.058;4.824;2023-07-30T07:13:09;19.23;;;7.00;;
74908;SDS011;63468;52.058;4.824;2023-07-30T07:15:35;19.85;;;8.38;;
74908;SDS011;63468;52.058;4.824;2023-07-30T07:18:00;19.27;;;7.32;;
74908;SDS011;63468;52.058;4.824;2023-07-30T07:20:26;16.30;;;7.03;;
74908;SDS011;63468;52.058;4.824;2023-07-30T07:22:52;17.17;;;7.25;;
74908;SDS011;63468;52.058;4.824;2023-07-30T07:25:17;15.00;;;7.05;;
74908;SDS011;63468;52.058;4.824;2023-07-30T07:27:44;18.90;;;7.57;;
74908;SDS011;63468;52.058;4.824;2023-07-30T07:30:09;18.73;;;6.93;;
74908;SDS011;63468;52.058;4.824;2023-07-30T07:32:35;13.63;;;7.47;;
74908;SDS011;63468;52.058;4.824;2023-07-30T07:35:03;20.05;;;7.53;;
74908;SDS011;63468;52.058;4.824;2023-07-30T07:37:30;14.30;;;7.25;;
74908;SDS011;63468;52.058;4.824;2023-07-30T07:39:56;22.40;;;7.85;;
74908;SDS011;63468;52.058;4.824;2023-07-30T07:42:22;20.40;;;8.43;;
74908;SDS011;63468;52.058;4.824;2023-07-30T07:44:47;20.10;;;9.23;;
74908;SDS011;63468;52.058;4.824;2023-07-30T07:47:12;14.25;;;7.97;;
74908;SDS011;63468;52.058;4.824;2023-07-30T07:49:38;14.55;;;7.38;;
74908;SDS011;63468;52.058;4.824;2023-07-30T07:52:03;19.42;;;8.57;;
74908;SDS011;63468;52.058;4.824;2023-07-30T07:54:29;16.02;;;7.53;;
74908;SDS011;63468;52.058;4.824;2023-07-30T07:56:54;14.48;;;7.63;;
74908;SDS011;63468;52.058;4.824;2023-07-30T07:59:19;16.52;;;7.93;;
74908;SDS011;63468;52.058;4.824;2023-07-30T08:01:45;17.83;;;7.53;;
74908;SDS011;63468;52.058;4.824;2023-07-30T08:04:10;16.52;;;8.70;;
74908;SDS011;63468;52.058;4.824;2023-07-30T08:06:35;12.88;;;8.30;;
74908;SDS011;63468;52.058;4.824;2023-07-30T08:09:01;15.70;;;8.45;;
74908;SDS011;63468;52.058;4.824;2023-07-30T08:11:27;18.27;;;9.45;;
74908;SDS011;63468;52.058;4.824;2023-07-30T08:13:52;19.77;;;8.90;;
74908;SDS011;63468;52.058;4.824;2023-07-30T08:16:17;14.82;;;8.35;;
74908;SDS011;63468;52.058;4.824;2023-07-30T08:18:43;15.85;;;9.40;;
74908;SDS011;63468;52.058;4.824;2023-07-30T08:21:08;12.68;;;7.65;;
74908;SDS011;63468;52.058;4.824;2023-07-30T08:23:34;12.73;;;7.63;;
74908;SDS011;63468;52.058;4.824;2023-07-30T08:25:59;11.10;;;7.65;;
74908;SDS011;63468;52.058;4.824;2023-07-30T08:28:24;22.42;;;8.77;;
74908;SDS011;63468;52.058;4.824;2023-07-30T08:30:50;11.75;;;7.95;;
74908;SDS011;63468;52.058;4.824;2023-07-30T08:33:15;13.55;;;7.10;;
74908;SDS011;63468;52.058;4.824;2023-07-30T08:35:40;14.05;;;8.57;;
74908;SDS011;63468;52.058;4.824;2023-07-30T08:38:06;8.73;;;7.13;;
74908;SDS011;63468;52.058;4.824;2023-07-30T08:40:31;10.88;;;7.72;;
74908;SDS011;63468;52.058;4.824;2023-07-30T08:42:57;13.27;;;7.60;;
74908;SDS011;63468;52.058;4.824;2023-07-30T08:45:22;11.52;;;6.88;;
74908;SDS011;63468;52.058;4.824;2023-07-30T08:47:48;9.50;;;6.60;;
74908;SDS011;63468;52.058;4.824;2023-07-30T08:50:13;12.13;;;7.32;;
74908;SDS011;63468;52.058;4.824;2023-07-30T08:52:39;12.52;;;7.68;;
74908;SDS011;63468;52.058;4.824;2023-07-30T08:55:05;16.05;;;8.43;;
74908;SDS011;63468;52.058;4.824;2023-07-30T08:57:31;10.07;;;7.32;;
74908;SDS011;63468;52.058;4.824;2023-07-30T09:00:02;10.63;;;7.40;;
74908;SDS011;63468;52.058;4.824;2023-07-30T09:05:05;10.90;;;8.48;;
74908;SDS011;63468;52.058;4.824;2023-07-30T09:07:31;14.43;;;7.85;;
74908;SDS011;63468;52.058;4.824;2023-07-30T09:09:56;9.25;;;7.30;;
74908;SDS011;63468;52.058;4.824;2023-07-30T09:12:34;10.63;;;7.57;;
74908;SDS011;63468;52.058;4.824;2023-07-30T09:15:01;10.10;;;7.72;;
74908;SDS011;63468;52.058;4.824;2023-07-30T09:17:28;13.13;;;7.65;;
74908;SDS011;63468;52.058;4.824;2023-07-30T09:19:53;12.70;;;7.65;;
74908;SDS011;63468;52.058;4.824;2023-07-30T09:22:28;12.77;;;8.95;;
74908;SDS011;63468;52.058;4.824;2023-07-30T09:25:05;15.00;;;9.20;;
74908;SDS011;63468;52.058;4.824;2023-07-30T09:27:32;10.15;;;9.00;;
74908;SDS011;63468;52.058;4.824;2023-07-30T09:29:58;13.43;;;8.82;;
74908;SDS011;63468;52.058;4.824;2023-07-30T09:32:30;16.90;;;8.35;;
74908;SDS011;63468;52.058;4.824;2023-07-30T09:35:10;9.60;;;7.57;;
74908;SDS011;63468;52.058;4.824;2023-07-30T09:37:36;10.10;;;7.30;;
74908;SDS011;63468;52.058;4.824;2023-07-30T09:40:04;11.32;;;7.43;;
74908;SDS011;63468;52.058;4.824;2023-07-30T09:42:30;13.23;;;8.95;;
74908;SDS011;63468;52.058;4.824;2023-07-30T09:44:59;13.57;;;8.38;;
74908;SDS011;63468;52.058;4.824;2023-07-30T09:47:26;12.73;;;7.78;;
74908;SDS011;63468;52.058;4.824;2023-07-30T09:49:52;13.90;;;7.90;;
74908;SDS011;63468;52.058;4.824;2023-07-30T09:52:18;10.93;;;8.98;;
74908;SDS011;63468;52.058;4.824;2023-07-30T09:54:44;13.50;;;8.02;;
74908;SDS011;63468;52.058;4.824;2023-07-30T09:57:09;11.57;;;8.15;;
74908;SDS011;63468;52.058;4.824;2023-07-30T09:59:34;11.30;;;7.90;;
74908;SDS011;63468;52.058;4.824;2023-07-30T10:02:00;13.57;;;8.27;;
74908;SDS011;63468;52.058;4.824;2023-07-30T10:04:25;10.00;;;7.47;;
74908;SDS011;63468;52.058;4.824;2023-07-30T10:06:56;12.88;;;7.43;;
74908;SDS011;63468;52.058;4.824;2023-07-30T10:09:25;10.07;;;8.38;;
74908;SDS011;63468;52.058;4.824;2023-07-30T10:11:55;14.83;;;8.43;;
74908;SDS011;63468;52.058;4.824;2023-07-30T10:14:21;13.13;;;8.88;;
74908;SDS011;63468;52.058;4.824;2023-07-30T10:16:55;10.68;;;8.82;;
74908;SDS011;63468;52.058;4.824;2023-07-30T10:19:27;10.57;;;9.23;;
74908;SDS011;63468;52.058;4.824;2023-07-30T10:24:37;11.23;;;8.70;;
74908;SDS011;63468;52.058;4.824;2023-07-30T10:27:06;11.32;;;8.45;;
74908;SDS011;63468;52.058;4.824;2023-07-30T10:29:34;12.02;;;8.52;;
74908;SDS011;63468;52.058;4.824;2023-07-30T10:32:04;9.60;;;7.78;;
74908;SDS011;63468;52.058;4.824;2023-07-30T10:34:46;11.95;;;7.93;;
74908;SDS011;63468;52.058;4.824;2023-07-30T10:37:18;10.50;;;8.32;;
74908;SDS011;63468;52.058;4.824;2023-07-30T10:39:47;10.90;;;8.27;;
74908;SDS011;63468;52.058;4.824;2023-07-30T10:42:13;15.40;;;9.05;;
74908;SDS011;63468;52.058;4.824;2023-07-30T10:44:40;10.20;;;8.00;;
74908;SDS011;63468;52.058;4.824;2023-07-30T10:47:08;11.43;;;7.68;;
74908;SDS011;63468;52.058;4.824;2023-07-30T10:49:37;10.10;;;8.02;;
74908;SDS011;63468;52.058;4.824;2023-07-30T10:52:06;16.83;;;7.47;;
74908;SDS011;63468;52.058;4.824;2023-07-30T10:54:34;10.32;;;7.22;;
74908;SDS011;63468;52.058;4.824;2023-07-30T10:57:00;11.52;;;7.43;;
74908;SDS011;63468;52.058;4.824;2023-07-30T10:59:26;10.32;;;7.70;;
74908;SDS011;63468;52.058;4.824;2023-07-30T11:01:52;12.15;;;7.57;;
74908;SDS011;63468;52.058;4.824;2023-07-30T11:04:19;10.25;;;7.80;;
74908;SDS011;63468;52.058;4.824;2023-07-30T11:06:49;15.40;;;8.13;;
74908;SDS011;63468;52.058;4.824;2023-07-30T11:09:19;12.75;;;8.20;;
74908;SDS011;63468;52.058;4.824;2023-07-30T11:11:48;18.73;;;8.88;;
74908;SDS011;63468;52.058;4.824;2023-07-30T11:14:15;12.43;;;8.30;;
74908;SDS011;63468;52.058;4.824;2023-07-30T11:16:47;15.70;;;8.63;;
74908;SDS011;63468;52.058;4.824;2023-07-30T11:19:32;11.57;;;7.95;;
74908;SDS011;63468;52.058;4.824;2023-07-30T11:21:59;12.02;;;8.52;;
74908;SDS011;63468;52.058;4.824;2023-07-30T11:24:34;9.60;;;8.18;;
74908;SDS011;63468;52.058;4.824;2023-07-30T11:27:00;11.13;;;7.78;;
74908;SDS011;63468;52.058;4.824;2023-07-30T11:29:26;13.23;;;8.25;;
74908;SDS011;63468;52.058;4.824;2023-07-30T11:31:52;9.98;;;8.50;;
74908;SDS011;63468;52.058;4.824;2023-07-30T11:34:21;11.30;;;8.40;;
74908;SDS011;63468;52.058;4.824;2023-07-30T11:36:46;8.90;;;8.07;;
74908;SDS011;63468;52.058;4.824;2023-07-30T11:39:12;12.88;;;7.72;;
74908;SDS011;63468;52.058;4.824;2023-07-30T11:41:37;10.38;;;8.50;;
74908;SDS011;63468;52.058;4.824;2023-07-30T11:44:03;12.63;;;8.32;;
74908;SDS011;63468;52.058;4.824;2023-07-30T11:46:29;12.15;;;8.85;;
74908;SDS011;63468;52.058;4.824;2023-07-30T11:49:10;11.00;;;8.45;;
74908;SDS011;63468;52.058;4.824;2023-07-30T11:51:41;10.93;;;8.75;;
74908;SDS011;63468;52.058;4.824;2023-07-30T11:54:07;9.93;;;7.43;;
74908;SDS011;63468;52.058;4.824;2023-07-30T11:56:33;10.15;;;7.90;;
74908;SDS011;63468;52.058;4.824;2023-07-30T11:58:59;13.32;;;8.98;;
74908;SDS011;63468;52.058;4.824;2023-07-30T12:01:26;12.65;;;8.57;;
74908;SDS011;63468;52.058;4.824;2023-07-30T12:03:54;13.18;;;8.65;;
74908;SDS011;63468;52.058;4.824;2023-07-30T12:06:20;12.85;;;7.43;;
74908;SDS011;63468;52.058;4.824;2023-07-30T12:08:48;8.80;;;7.22;;
74908;SDS011;63468;52.058;4.824;2023-07-30T12:11:13;11.10;;;7.25;;
74908;SDS011;63468;52.058;4.824;2023-07-30T12:13:42;9.57;;;8.68;;
74908;SDS011;63468;52.058;4.824;2023-07-30T12:16:10;9.82;;;7.40;;
74908;SDS011;63468;52.058;4.824;2023-07-30T12:18:37;11.68;;;8.32;;
74908;SDS011;63468;52.058;4.824;2023-07-30T12:21:02;9.18;;;8.32;;
74908;SDS011;63468;52.058;4.824;2023-07-30T12:23:29;8.77;;;7.90;;
74908;SDS011;63468;52.058;4.824;2023-07-30T12:25:55;10.00;;;7.80;;
74908;SDS011;63468;52.058;4.824;2023-07-30T12:28:20;9.98;;;8.45;;
74908;SDS011;63468;52.058;4.824;2023-07-30T12:30:45;8.93;;;8.00;;
74908;SDS011;63468;52.058;4.824;2023-07-30T12:33:11;12.07;;;8.07;;
74908;SDS011;63468;52.058;4.824;2023-07-30T12:35:36;10.07;;;7.30;;
74908;SDS011;63468;52.058;4.824;2023-07-30T12:38:01;11.45;;;8.15;;
74908;SDS011;63468;52.058;4.824;2023-07-30T12:40:26;8.48;;;7.63;;
74908;SDS011;63468;52.058;4.824;2023-07-30T12:42:54;9.30;;;7.47;;
74908;SDS011;63468;52.058;4.824;2023-07-30T12:45:20;9.52;;;8.35;;
74908;SDS011;63468;52.058;4.824;2023-07-30T12:47:45;9.10;;;7.50;;
74908;SDS011;63468;52.058;4.824;2023-07-30T12:50:10;8.85;;;7.00;;
74908;SDS011;63468;52.058;4.824;2023-07-30T12:52:36;11.15;;;8.40;;
74908;SDS011;63468;52.058;4.824;2023-07-30T12:55:01;8.27;;;7.40;;
74908;SDS011;63468;52.058;4.824;2023-07-30T12:57:29;8.80;;;7.72;;
74908;SDS011;63468;52.058;4.824;2023-07-30T12:59:55;8.05;;;7.20;;
74908;SDS011;63468;52.058;4.824;2023-07-30T13:02:20;11.50;;;8.55;;
74908;SDS011;63468;52.058;4.824;2023-07-30T13:04:45;11.13;;;7.18;;
74908;SDS011;63468;52.058;4.824;2023-07-30T13:07:11;10.48;;;7.05;;
74908;SDS011;63468;52.058;4.824;2023-07-30T13:09:36;10.23;;;7.05;;
74908;SDS011;63468;52.058;4.824;2023-07-30T13:12:01;11.73;;;7.80;;
74908;SDS011;63468;52.058;4.824;2023-07-30T13:14:26;10.60;;;7.95;;
74908;SDS011;63468;52.058;4.824;2023-07-30T13:16:52;9.90;;;7.25;;
74908;SDS011;63468;52.058;4.824;2023-07-30T13:19:17;9.35;;;7.15;;
74908;SDS011;63468;52.058;4.824;2023-07-30T13:21:42;11.10;;;7.00;;
74908;SDS011;63468;52.058;4.824;2023-07-30T13:24:08;9.65;;;7.28;;
74908;SDS011;63468;52.058;4.824;2023-07-30T13:26:34;10.50;;;8.43;;
74908;SDS011;63468;52.058;4.824;2023-07-30T13:29:00;15.98;;;7.15;;
74908;SDS011;63468;52.058;4.824;2023-07-30T13:31:25;12.30;;;7.55;;
74908;SDS011;63468;52.058;4.824;2023-07-30T13:33:50;11.40;;;6.55;;
74908;SDS011;63468;52.058;4.824;2023-07-30T13:36:16;13.88;;;6.57;;
74908;SDS011;63468;52.058;4.824;2023-07-30T13:38:42;9.85;;;7.05;;
74908;SDS011;63468;52.058;4.824;2023-07-30T13:41:08;11.77;;;8.52;;
74908;SDS011;63468;52.058;4.824;2023-07-30T13:43:34;14.93;;;7.72;;
74908;SDS011;63468;52.058;4.824;2023-07-30T13:45:59;11.20;;;7.72;;
74908;SDS011;63468;52.058;4.824;2023-07-30T13:48:25;9.70;;;8.80;;
74908;SDS011;63468;52.058;4.824;2023-07-30T13:50:50;12.57;;;8.35;;
74908;SDS011;63468;52.058;4.824;2023-07-30T13:53:16;12.10;;;8.43;;
74908;SDS011;63468;52.058;4.824;2023-07-30T13:55:41;13.82;;;8.13;;
74908;SDS011;63468;52.058;4.824;2023-07-30T13:58:06;18.80;;;8.05;;
74908;SDS011;63468;52.058;4.824;2023-07-30T14:00:32;11.82;;;7.97;;
74908;SDS011;63468;52.058;4.824;2023-07-30T14:02:57;12.60;;;8.25;;
74908;SDS011;63468;52.058;4.824;2023-07-30T14:05:22;12.77;;;8.52;;
74908;SDS011;63468;52.058;4.824;2023-07-30T14:07:48;16.45;;;10.35;;
74908;SDS011;63468;52.058;4.824;2023-07-30T14:10:16;10.57;;;8.65;;
74908;SDS011;63468;52.058;4.824;2023-07-30T14:12:41;14.52;;;9.50;;
74908;SDS011;63468;52.058;4.824;2023-07-30T14:15:07;13.98;;;8.77;;
74908;SDS011;63468;52.058;4.824;2023-07-30T14:17:33;12.85;;;9.25;;
74908;SDS011;63468;52.058;4.824;2023-07-30T14:19:58;12.30;;;8.55;;
74908;SDS011;63468;52.058;4.824;2023-07-30T14:22:23;15.15;;;9.00;;
74908;SDS011;63468;52.058;4.824;2023-07-30T14:24:48;12.70;;;9.15;;
74908;SDS011;63468;52.058;4.824;2023-07-30T14:27:14;13.85;;;9.07;;
74908;SDS011;63468;52.058;4.824;2023-07-30T14:29:40;13.40;;;8.85;;
74908;SDS011;63468;52.058;4.824;2023-07-30T14:32:05;12.32;;;8.40;;